Time;durP1;ratioP1;P1;durP2;ratioP2;P2;SDS_P1;SDS_P2;PMS_P1;PMS_P2;Temp;Humidity;BMP_temperature;BMP_pressure;BME280_temperature;BME280_humidity;BME280_pressure;Samples;Min_cycle;Max_cycle;Signal;HPM_P1;HPM_P2
2023/01/23 00:01:37;;;;;;;;;;;;;;;;;;5089119;28;19912;-66
2023/01/23 00:04:03;;;;;;;;;;;;;;;;;;5088947;28;19914;-69
2023/01/23 00:06:29;;;;;;;;;;;;;;;;;;5084216;28;19942;-69
2023/01/23 00:08:55;;;;;;;;;;;;;;;;;;5088968;28;19912;-69
2023/01/23 00:11:21;;;;;;;;;;;;;;;;;;5088981;28;19919;-69
2023/01/23 00:13:47;;;;;;;;;;;;;;;;;;5081571;28;19916;-69
2023/01/23 00:16:13;;;;;;;;;;;;;;;;;;5069779;28;19978;-69
2023/01/23 00:18:39;;;;;;;;;;;;;;;;;;5069384;28;19913;-68
2023/01/23 00:21:05;;;;;;;;;;;;;;;;;;5069006;28;20580;-69
2023/01/23 00:23:31;;;;;;;;;;;;;;;;;;5069693;28;19958;-68
2023/01/23 00:25:57;;;;;;;;;;;;;;;;;;5079519;28;19917;-68
2023/01/23 00:28:23;;;;;;;;;;;;;;;;;;5088681;28;19912;-69
2023/01/23 00:30:49;;;;;;;;;;;;;;;;;;5070492;28;20448;-67
2023/01/23 00:33:14;;;;;;;;;;;;;;;;;;5089023;28;19912;-67
2023/01/23 00:35:40;;;;;;;;;;;;;;;;;;5088410;28;19915;-68
2023/01/23 00:38:06;;;;;;;;;;;;;;;;;;5088610;28;20376;-68
2023/01/23 00:40:32;;;;;;;;;;;;;;;;;;5088955;28;20014;-68
2023/01/23 00:42:58;;;;;;;;;;;;;;;;;;5087378;28;20360;-68
2023/01/23 00:45:24;;;;;;;;;;;;;;;;;;5069419;28;19909;-69
2023/01/23 00:47:50;;;;;;;;;;;;;;;;;;5069191;28;19917;-69
2023/01/23 00:50:16;;;;;;;;;;;;;;;;;;5069554;28;20003;-68
2023/01/23 00:52:42;;;;;;;;;;;;;;;;;;5069654;28;20102;-69
2023/01/23 00:55:07;;;;;;;;;;;;;;;;;;5069487;28;19948;-68
2023/01/23 00:57:33;;;;;;;;;;;;;;;;;;5069086;28;20381;-68
2023/01/23 00:59:59;;;;;;;;;;;;;;;;;;5088788;28;19916;-69
2023/01/23 01:02:25;;;;;;;;;;;;;;;;;;5088716;28;20323;-68
2023/01/23 01:04:51;;;;;;;;;;;;;;;;;;5086694;28;19909;-67
2023/01/23 01:07:17;;;;;;;;;;;;;;;;;;5092134;28;19918;-67
2023/01/23 01:09:43;;;;;;;;;;;;;;;;;;5093056;28;20388;-68
2023/01/23 01:12:09;;;;;;;;;;;;;;;;;;5093187;28;19908;-68
2023/01/23 01:14:35;;;;;;;;;;;;;;;;;;5092807;28;20396;-67
2023/01/23 01:17:01;;;;;;;;;;;;;;;;;;5092881;28;19912;-67
2023/01/23 01:19:27;;;;;;;;;;;;;;;;;;5091982;28;19920;-67
2023/01/23 01:21:52;;;;;;;;;;;;;;;;;;5092636;28;19908;-69
2023/01/23 01:24:18;;;;;;;;;;;;;;;;;;5092710;28;19919;-68
2023/01/23 01:26:44;;;;;;;;;;;;;;;;;;5092534;28;20387;-69
2023/01/23 01:29:10;;;;;;;;;;;;;;;;;;5092036;28;19908;-69
2023/01/23 01:31:36;;;;;;;;;;;;;;;;;;5092390;28;19912;-68
2023/01/23 01:34:02;;;;;;;;;;;;;;;;;;5092004;28;20398;-69
2023/01/23 01:36:28;;;;;;;;;;;;;;;;;;5092511;28;19914;-68
2023/01/23 01:38:54;;;;;;;;;;;;;;;;;;5092070;28;20018;-68
2023/01/23 01:41:20;;;;;;;;;;;;;;;;;;5092118;28;20323;-68
2023/01/23 01:43:46;;;;;;;;;;;;;;;;;;5092543;28;19958;-69
2023/01/23 01:46:12;;;;;;;;;;;;;;;;;;5091651;28;19920;-69
2023/01/23 01:48:38;;;;;;;;;;;;;;;;;;5091924;28;19912;-68
2023/01/23 01:51:03;;;;;;;;;;;;;;;;;;5091929;28;19908;-68
2023/01/23 01:53:29;;;;;;;;;;;;;;;;;;5092040;28;19947;-68
2023/01/23 01:55:55;;;;;;;;;;;;;;;;;;5091897;28;20277;-69
2023/01/23 01:58:21;;;;;;;;;;;;;;;;;;5091934;28;19908;-69
2023/01/23 02:00:47;;;;;;;;;;;;;;;;;;5066043;28;20337;-69
2023/01/23 02:03:13;;;;;;;;;;;;;;;;;;5072095;28;20015;-70
2023/01/23 02:05:39;;;;;;;;;;;;;;;;;;5078462;28;20380;-68
2023/01/23 02:08:05;;;;;;;;;;;;;;;;;;5086076;28;20010;-69
2023/01/23 02:10:32;;;;;;;;;;;;;;;;;;5071784;28;20426;-69
2023/01/23 02:12:58;;;;;;;;;;;;;;;;;;5072671;28;19915;-68
2023/01/23 02:15:24;;;;;;;;;;;;;;;;;;5070961;28;19916;-69
2023/01/23 02:17:50;;;;;;;;;;;;;;;;;;5071582;28;19920;-70
2023/01/23 02:20:16;;;;;;;;;;;;;;;;;;5083054;28;19916;-69
2023/01/23 02:22:42;;;;;;;;;;;;;;;;;;5091607;28;19916;-66
2023/01/23 02:25:08;;;;;;;;;;;;;;;;;;5091172;28;20190;-66
2023/01/23 02:27:34;;;;;;;;;;;;;;;;;;5087991;28;20379;-68
2023/01/23 02:30:00;;;;;;;;;;;;;;;;;;5071628;28;19947;-69
2023/01/23 02:32:26;;;;;;;;;;;;;;;;;;5071747;28;19912;-67
2023/01/23 02:34:52;;;;;;;;;;;;;;;;;;5071666;28;19912;-65
2023/01/23 02:37:18;;;;;;;;;;;;;;;;;;5071702;28;20619;-65
2023/01/23 02:39:44;;;;;;;;;;;;;;;;;;5071601;28;19923;-66
2023/01/23 02:42:10;;;;;;;;;;;;;;;;;;5071022;28;19917;-66
2023/01/23 02:44:36;;;;;;;;;;;;;;;;;;5071104;28;20003;-67
2023/01/23 02:47:02;;;;;;;;;;;;;;;;;;5070612;28;19998;-67
2023/01/23 02:49:28;;;;;;;;;;;;;;;;;;5071387;28;19913;-66
2023/01/23 02:51:54;;;;;;;;;;;;;;;;;;5070796;28;20373;-66
2023/01/23 02:54:20;;;;;;;;;;;;;;;;;;5070797;28;20266;-67
2023/01/23 02:56:46;;;;;;;;;;;;;;;;;;5070849;28;20415;-66
2023/01/23 03:01:56;;;;;;;;;;;;;;;;;;5070490;28;20415;-66
2023/01/23 03:04:22;;;;;;;;;;;;;;;;;;5070695;28;19960;-66
2023/01/23 03:06:48;;;;;;;;;;;;;;;;;;5070404;28;19908;-66
2023/01/23 03:09:14;;;;;;;;;;;;;;;;;;5070585;28;19916;-67
2023/01/23 03:11:40;;;;;;;;;;;;;;;;;;5070749;28;19905;-65
2023/01/23 03:14:06;;;;;;;;;;;;;;;;;;5070356;28;19962;-63
2023/01/23 03:16:33;;;;;;;;;;;;;;;;;;5069903;28;20342;-66
2023/01/23 03:19:03;;;;;;;;;;;;;;;;;;5070026;28;20014;-64
2023/01/23 03:21:29;;;;;;;;;;;;;;;;;;5070311;28;19999;-66
2023/01/23 03:23:55;;;;;;;;;;;;;;;;;;5069977;28;19916;-66
2023/01/23 03:26:21;;;;;;;;;;;;;;;;;;5070016;28;19962;-64
2023/01/23 03:31:32;;;;;;;;;;;;;;;;;;5066803;28;19935;-65
2023/01/23 03:34:00;;;;;;;;;;;;;;;;;;5069214;28;20214;-67
2023/01/23 03:36:26;;;;;;;;;;;;;;;;;;5068792;28;19948;-65
2023/01/23 03:41:40;;;;;;;;;;;;;;;;;;5086660;28;19931;-66
2023/01/23 03:44:06;;;;;;;;;;;;;;;;;;5089673;28;19912;-66
2023/01/23 03:46:32;;;;;;;;;;;;;;;;;;5089387;28;19953;-67
2023/01/23 03:48:58;;;;;;;;;;;;;;;;;;5089615;28;19915;-66
2023/01/23 03:51:24;;;;;;;;;;;;;;;;;;5089520;28;19912;-67
2023/01/23 03:53:50;;;;;;;;;;;;;;;;;;5089391;28;19912;-66
2023/01/23 03:56:15;;;;;;;;;;;;;;;;;;5089328;28;20344;-67
2023/01/23 03:58:41;;;;;;;;;;;;;;;;;;5088750;28;19916;-66
2023/01/23 04:01:08;;;;;;;;;;;;;;;;;;5089275;28;20003;-65
2023/01/23 04:03:34;;;;;;;;;;;;;;;;;;5089232;28;19915;-66
2023/01/23 04:06:00;;;;;;;;;;;;;;;;;;5086154;28;19912;-65
2023/01/23 04:08:26;;;;;;;;;;;;;;;;;;5089327;28;19953;-66
2023/01/23 04:10:51;;;;;;;;;;;;;;;;;;5089523;28;19912;-64
2023/01/23 04:13:17;;;;;;;;;;;;;;;;;;5088616;28;19916;-64
2023/01/23 04:15:43;;;;;;;;;;;;;;;;;;5089149;28;19908;-66
2023/01/23 04:18:09;;;;;;;;;;;;;;;;;;5089271;28;19947;-65
2023/01/23 04:20:35;;;;;;;;;;;;;;;;;;5088788;28;20432;-66
2023/01/23 04:23:01;;;;;;;;;;;;;;;;;;5089162;28;19912;-65
2023/01/23 04:25:28;;;;;;;;;;;;;;;;;;5088756;28;20619;-66
2023/01/23 04:27:53;;;;;;;;;;;;;;;;;;5082891;28;19912;-65
2023/01/23 04:30:19;;;;;;;;;;;;;;;;;;5089121;28;20264;-66
2023/01/23 04:32:45;;;;;;;;;;;;;;;;;;5089245;28;19912;-65
2023/01/23 04:35:11;;;;;;;;;;;;;;;;;;5084396;28;20388;-65
2023/01/23 04:37:37;;;;;;;;;;;;;;;;;;5088713;28;20021;-65
2023/01/23 04:40:03;;;;;;;;;;;;;;;;;;5088400;28;19946;-65
2023/01/23 04:42:29;;;;;;;;;;;;;;;;;;5088348;28;20011;-65
2023/01/23 04:44:55;;;;;;;;;;;;;;;;;;5088511;28;19912;-64
2023/01/23 04:47:21;;;;;;;;;;;;;;;;;;5088783;28;20028;-66
2023/01/23 04:49:46;;;;;;;;;;;;;;;;;;5088528;28;19908;-66
2023/01/23 04:52:12;;;;;;;;;;;;;;;;;;5084105;28;19947;-66
2023/01/23 04:54:38;;;;;;;;;;;;;;;;;;5068976;28;19931;-66
2023/01/23 04:57:04;;;;;;;;;;;;;;;;;;5069136;28;20076;-66
2023/01/23 04:59:30;;;;;;;;;;;;;;;;;;5069149;28;19920;-66
2023/01/23 05:01:56;;;;;;;;;;;;;;;;;;5069296;28;20269;-66
2023/01/23 05:04:22;;;;;;;;;;;;;;;;;;5069043;28;19909;-67
2023/01/23 05:06:48;;;;;;;;;;;;;;;;;;5085061;28;19912;-65
2023/01/23 05:09:14;;;;;;;;;;;;;;;;;;5088264;28;19913;-64
2023/01/23 05:11:40;;;;;;;;;;;;;;;;;;5088739;28;19912;-61
2023/01/23 05:14:06;;;;;;;;;;;;;;;;;;5081395;28;20004;-67
2023/01/23 05:16:32;;;;;;;;;;;;;;;;;;5088800;28;19912;-64
2023/01/23 05:18:58;;;;;;;;;;;;;;;;;;5088179;28;20346;-65
2023/01/23 05:21:24;;;;;;;;;;;;;;;;;;5088232;28;20011;-66
2023/01/23 05:23:49;;;;;;;;;;;;;;;;;;5087979;28;19990;-65
2023/01/23 05:26:15;;;;;;;;;;;;;;;;;;5088311;28;19912;-66
2023/01/23 05:28:41;;;;;;;;;;;;;;;;;;5088418;28;20513;-64
2023/01/23 05:31:07;;;;;;;;;;;;;;;;;;5088091;28;19918;-62
2023/01/23 05:33:33;;;;;;;;;;;;;;;;;;5088112;28;20002;-65
2023/01/23 05:35:59;;;;;;;;;;;;;;;;;;5062062;28;19912;-63
2023/01/23 05:38:25;;;;;;;;;;;;;;;;;;5068743;28;19912;-63
2023/01/23 05:40:51;;;;;;;;;;;;;;;;;;5068045;28;19924;-62
2023/01/23 05:43:17;;;;;;;;;;;;;;;;;;5068392;28;20011;-63
2023/01/23 05:45:43;;;;;;;;;;;;;;;;;;5068345;28;20008;-65
2023/01/23 05:48:09;;;;;;;;;;;;;;;;;;5067996;28;20003;-65
2023/01/23 05:50:35;;;;;;;;;;;;;;;;;;5071827;28;19913;-65
2023/01/23 05:53:00;;;;;;;;;;;;;;;;;;5071960;28;19944;-65
2023/01/23 05:55:26;;;;;;;;;;;;;;;;;;5071160;28;19923;-65
2023/01/23 05:57:52;;;;;;;;;;;;;;;;;;5071629;28;20018;-64
2023/01/23 06:00:18;;;;;;;;;;;;;;;;;;5071888;28;19927;-64
2023/01/23 06:02:46;;;;;;;;;;;;;;;;;;5071656;28;20593;-64
2023/01/23 06:05:12;;;;;;;;;;;;;;;;;;5071627;28;20415;-65
2023/01/23 06:07:37;;;;;;;;;;;;;;;;;;5071303;28;20010;-62
2023/01/23 06:10:03;;;;;;;;;;;;;;;;;;5071684;28;19927;-67
2023/01/23 06:12:29;;;;;;;;;;;;;;;;;;5071837;28;20491;-65
2023/01/23 06:14:55;;;;;;;;;;;;;;;;;;5053263;28;19966;-66
2023/01/23 06:17:21;;;;;;;;;;;;;;;;;;5053268;28;19913;-66
2023/01/23 06:19:47;;;;;;;;;;;;;;;;;;5071288;28;19917;-65
2023/01/23 06:22:13;;;;;;;;;;;;;;;;;;5071335;28;20011;-65
2023/01/23 06:24:39;;;;;;;;;;;;;;;;;;5070706;28;19912;-66
2023/01/23 06:27:08;;;;;;;;;;;;;;;;;;5070899;28;20015;-67
2023/01/23 06:29:34;;;;;;;;;;;;;;;;;;5071106;28;19912;-66
2023/01/23 06:31:59;;;;;;;;;;;;;;;;;;5070928;28;19913;-65
2023/01/23 06:34:25;;;;;;;;;;;;;;;;;;5071431;28;19912;-66
2023/01/23 06:36:51;;;;;;;;;;;;;;;;;;5071198;28;19995;-67
2023/01/23 06:39:17;;;;;;;;;;;;;;;;;;5070901;28;20396;-65
2023/01/23 06:41:43;;;;;;;;;;;;;;;;;;5088523;28;20072;-66
2023/01/23 06:44:09;;;;;;;;;;;;;;;;;;5064987;28;20050;-65
2023/01/23 06:46:35;;;;;;;;;;;;;;;;;;5071587;28;19913;-65
2023/01/23 06:49:01;;;;;;;;;;;;;;;;;;5071034;28;19912;-66
2023/01/23 06:51:27;;;;;;;;;;;;;;;;;;5071732;28;19912;-67
2023/01/23 06:53:53;;;;;;;;;;;;;;;;;;5070931;28;19912;-64
2023/01/23 06:56:19;;;;;;;;;;;;;;;;;;5070975;28;19916;-65
2023/01/23 06:58:45;;;;;;;;;;;;;;;;;;5071271;28;20071;-65
2023/01/23 07:01:11;;;;;;;;;;;;;;;;;;5070596;28;19916;-64
2023/01/23 07:03:37;;;;;;;;;;;;;;;;;;5052877;28;20343;-65
2023/01/23 07:06:05;;;;;;;;;;;;;;;;;;5079747;28;19935;-65
2023/01/23 07:08:31;;;;;;;;;;;;;;;;;;5072375;28;19912;-64
2023/01/23 07:10:57;;;;;;;;;;;;;;;;;;5070553;28;19919;-62
2023/01/23 07:13:23;;;;;;;;;;;;;;;;;;5071010;28;19916;-64
2023/01/23 07:15:49;;;;;;;;;;;;;;;;;;5070639;28;20006;-63
2023/01/23 07:18:14;;;;;;;;;;;;;;;;;;5071104;28;19912;-64
2023/01/23 07:20:40;;;;;;;;;;;;;;;;;;5079759;28;20326;-64
2023/01/23 07:23:06;;;;;;;;;;;;;;;;;;5089732;28;19995;-64
2023/01/23 07:25:32;;;;;;;;;;;;;;;;;;5090040;28;20316;-62
2023/01/23 07:27:58;;;;;;;;;;;;;;;;;;5089856;28;19916;-65
2023/01/23 07:30:25;;;;;;;;;;;;;;;;;;5081615;28;21130;-65
2023/01/23 07:32:51;;;;;;;;;;;;;;;;;;5077142;28;19908;-65
2023/01/23 07:35:17;;;;;;;;;;;;;;;;;;5070656;28;20327;-65
2023/01/23 07:37:43;;;;;;;;;;;;;;;;;;5069776;28;19919;-66
2023/01/23 07:40:09;;;;;;;;;;;;;;;;;;5070029;28;19929;-64
2023/01/23 07:42:35;;;;;;;;;;;;;;;;;;5069528;28;19908;-65
2023/01/23 07:45:00;;;;;;;;;;;;;;;;;;5069313;28;19913;-64
2023/01/23 07:47:26;;;;;;;;;;;;;;;;;;5069589;28;19951;-64
2023/01/23 07:49:52;;;;;;;;;;;;;;;;;;5062894;28;19912;-66
2023/01/23 07:52:18;;;;;;;;;;;;;;;;;;5069375;28;19912;-64
2023/01/23 07:54:44;;;;;;;;;;;;;;;;;;5068979;28;19978;-64
2023/01/23 07:57:10;;;;;;;;;;;;;;;;;;5069157;28;19920;-65
2023/01/23 07:59:36;;;;;;;;;;;;;;;;;;5069456;28;19932;-65
2023/01/23 08:02:02;;;;;;;;;;;;;;;;;;5069174;28;19912;-66
2023/01/23 08:04:28;;;;;;;;;;;;;;;;;;5069421;28;20690;-65
2023/01/23 08:06:54;;;;;;;;;;;;;;;;;;5050585;28;19912;-63
2023/01/23 08:09:19;;;;;;;;;;;;;;;;;;5067805;28;19912;-66
2023/01/23 08:11:45;;;;;;;;;;;;;;;;;;5067372;28;20281;-66
2023/01/23 08:14:11;;;;;;;;;;;;;;;;;;5068111;28;19912;-65
2023/01/23 08:16:37;;;;;;;;;;;;;;;;;;5068617;28;20475;-64
2023/01/23 08:19:03;;;;;;;;;;;;;;;;;;5068362;28;20031;-66
2023/01/23 08:21:29;;;;;;;;;;;;;;;;;;5049737;28;19991;-65
2023/01/23 08:23:55;;;;;;;;;;;;;;;;;;5068292;28;19919;-65
2023/01/23 08:26:21;;;;;;;;;;;;;;;;;;5068621;28;20011;-63
2023/01/23 08:28:46;;;;;;;;;;;;;;;;;;5068840;28;19912;-62
2023/01/23 08:31:12;;;;;;;;;;;;;;;;;;5068674;28;19908;-63
2023/01/23 08:33:38;;;;;;;;;;;;;;;;;;5068522;28;20372;-61
2023/01/23 08:36:04;;;;;;;;;;;;;;;;;;5068806;28;20762;-62
2023/01/23 08:38:30;;;;;;;;;;;;;;;;;;5065058;28;19917;-62
2023/01/23 08:40:56;;;;;;;;;;;;;;;;;;5066216;28;19929;-61
2023/01/23 08:43:22;;;;;;;;;;;;;;;;;;5065519;28;19913;-62
2023/01/23 08:45:48;;;;;;;;;;;;;;;;;;5068603;28;20428;-63
2023/01/23 08:48:14;;;;;;;;;;;;;;;;;;5068368;28;19958;-62
2023/01/23 08:50:40;;;;;;;;;;;;;;;;;;5068361;28;19913;-59
2023/01/23 08:53:06;;;;;;;;;;;;;;;;;;5066887;28;19969;-61
2023/01/23 08:55:34;;;;;;;;;;;;;;;;;;5059892;28;19931;-59
2023/01/23 08:58:00;;;;;;;;;;;;;;;;;;5064644;28;19934;-59
2023/01/23 09:00:26;;;;;;;;;;;;;;;;;;5064493;28;19955;-63
2023/01/23 09:02:52;;;;;;;;;;;;;;;;;;5065113;28;19913;-63
2023/01/23 09:05:18;;;;;;;;;;;;;;;;;;5063776;28;20420;-64
2023/01/23 09:07:44;;;;;;;;;;;;;;;;;;5066008;28;19963;-62
2023/01/23 09:10:11;;;;;;;;;;;;;;;;;;5065481;28;20047;-63
2023/01/23 09:12:37;;;;;;;;;;;;;;;;;;5063099;28;20381;-63
2023/01/23 09:15:03;;;;;;;;;;;;;;;;;;5065990;28;19913;-62
2023/01/23 09:17:29;;;;;;;;;;;;;;;;;;5061336;28;19962;-63
2023/01/23 09:19:55;;;;;;;;;;;;;;;;;;5065835;28;19921;-62
2023/01/23 09:22:21;;;;;;;;;;;;;;;;;;5058958;28;19924;-63
2023/01/23 09:24:47;;;;;;;;;;;;;;;;;;5067834;28;19993;-61
2023/01/23 09:27:13;;;;;;;;;;;;;;;;;;5067570;28;19912;-63
2023/01/23 09:29:39;;;;;;;;;;;;;;;;;;5051589;28;20006;-63
2023/01/23 09:32:05;;;;;;;;;;;;;;;;;;5051456;28;20003;-64
2023/01/23 09:34:31;;;;;;;;;;;;;;;;;;5069914;28;19916;-63
2023/01/23 09:36:56;;;;;;;;;;;;;;;;;;5067128;28;19943;-62
2023/01/23 09:39:22;;;;;;;;;;;;;;;;;;5066356;28;19995;-62
2023/01/23 09:41:48;;;;;;;;;;;;;;;;;;5067426;28;19928;-63
2023/01/23 09:44:14;;;;;;;;;;;;;;;;;;5068943;28;20399;-62
2023/01/23 09:46:40;;;;;;;;;;;;;;;;;;5069009;28;20010;-62
2023/01/23 09:49:07;;;;;;;;;;;;;;;;;;5065968;28;19917;-62
2023/01/23 09:51:32;;;;;;;;;;;;;;;;;;5068064;28;19999;-64
2023/01/23 09:53:58;;;;;;;;;;;;;;;;;;5068952;28;20361;-62
2023/01/23 09:56:24;;;;;;;;;;;;;;;;;;5069208;28;19920;-64
2023/01/23 09:58:50;;;;;;;;;;;;;;;;;;5051459;28;19919;-63
2023/01/23 10:01:16;;;;;;;;;;;;;;;;;;5048417;28;19920;-63
2023/01/23 10:03:42;;;;;;;;;;;;;;;;;;5060951;28;19931;-63
2023/01/23 10:06:08;;;;;;;;;;;;;;;;;;5068594;28;19920;-62
2023/01/23 10:08:34;;;;;;;;;;;;;;;;;;5069549;28;20023;-63
2023/01/23 10:11:00;;;;;;;;;;;;;;;;;;5069201;28;19919;-61
2023/01/23 10:13:25;;;;;;;;;;;;;;;;;;5066623;28;19912;-63
2023/01/23 10:15:51;;;;;;;;;;;;;;;;;;5068682;28;19917;-63
2023/01/23 10:18:17;;;;;;;;;;;;;;;;;;5068685;28;19919;-63
2023/01/23 10:20:43;;;;;;;;;;;;;;;;;;5069047;28;19967;-63
2023/01/23 10:23:09;;;;;;;;;;;;;;;;;;5065618;28;19924;-62
2023/01/23 10:25:36;;;;;;;;;;;;;;;;;;5065502;28;19916;-62
2023/01/23 10:28:02;;;;;;;;;;;;;;;;;;5066427;28;19935;-62
2023/01/23 10:30:28;;;;;;;;;;;;;;;;;;5068919;28;19913;-62
2023/01/23 10:32:54;;;;;;;;;;;;;;;;;;5068756;28;20353;-61
2023/01/23 10:35:20;;;;;;;;;;;;;;;;;;5065951;28;20011;-62
2023/01/23 10:37:45;;;;;;;;;;;;;;;;;;5068446;28;19916;-61
2023/01/23 10:40:11;;;;;;;;;;;;;;;;;;5066953;28;20304;-61
2023/01/23 10:42:37;;;;;;;;;;;;;;;;;;5069004;28;19919;-61
2023/01/23 10:45:03;;;;;;;;;;;;;;;;;;5064487;28;20445;-63
2023/01/23 10:47:29;;;;;;;;;;;;;;;;;;5065312;28;20511;-62
2023/01/23 10:49:55;;;;;;;;;;;;;;;;;;5059743;28;20015;-64
2023/01/23 10:52:21;;;;;;;;;;;;;;;;;;5067783;28;20027;-65
2023/01/23 10:54:47;;;;;;;;;;;;;;;;;;5044459;28;20007;-63
2023/01/23 10:57:13;;;;;;;;;;;;;;;;;;5068701;28;20264;-65
2023/01/23 10:59:40;;;;;;;;;;;;;;;;;;5064764;28;20389;-64
2023/01/23 11:02:06;;;;;;;;;;;;;;;;;;5067259;28;20584;-61
2023/01/23 11:04:32;;;;;;;;;;;;;;;;;;5065162;28;19917;-61
2023/01/23 11:06:58;;;;;;;;;;;;;;;;;;5064824;28;20020;-61
2023/01/23 11:09:24;;;;;;;;;;;;;;;;;;5064045;28;20070;-60
2023/01/23 11:11:49;;;;;;;;;;;;;;;;;;5060360;28;19920;-62
2023/01/23 11:14:20;;;;;;;;;;;;;;;;;;5067816;28;20304;-63
2023/01/23 11:16:46;;;;;;;;;;;;;;;;;;5065238;28;20309;-63
2023/01/23 11:19:12;;;;;;;;;;;;;;;;;;5066105;28;19925;-61
2023/01/23 11:21:38;;;;;;;;;;;;;;;;;;5062623;28;19920;-62
2023/01/23 11:24:04;;;;;;;;;;;;;;;;;;5065943;28;19923;-63
2023/01/23 11:26:30;;;;;;;;;;;;;;;;;;5061050;28;19912;-61
2023/01/23 11:28:56;;;;;;;;;;;;;;;;;;5067073;28;20014;-61
2023/01/23 11:31:21;;;;;;;;;;;;;;;;;;5060448;28;19916;-62
2023/01/23 11:33:50;;;;;;;;;;;;;;;;;;5067212;28;20296;-62
2023/01/23 11:36:16;;;;;;;;;;;;;;;;;;5066889;28;19923;-61
2023/01/23 11:38:42;;;;;;;;;;;;;;;;;;5067773;28;20308;-63
2023/01/23 11:41:08;;;;;;;;;;;;;;;;;;5061728;28;19928;-61
2023/01/23 11:43:34;;;;;;;;;;;;;;;;;;5067079;28;20339;-58
2023/01/23 11:46:00;;;;;;;;;;;;;;;;;;5064319;28;19960;-62
2023/01/23 11:48:26;;;;;;;;;;;;;;;;;;5066211;28;20311;-62
2023/01/23 11:50:52;;;;;;;;;;;;;;;;;;5057765;28;19913;-61
2023/01/23 11:53:18;;;;;;;;;;;;;;;;;;5069137;28;19912;-63
2023/01/23 11:55:44;;;;;;;;;;;;;;;;;;5068239;28;19920;-62
2023/01/23 11:58:13;;;;;;;;;;;;;;;;;;5068185;28;19916;-61
2023/01/23 12:00:39;;;;;;;;;;;;;;;;;;5066297;28;19924;-62
2023/01/23 12:03:05;;;;;;;;;;;;;;;;;;5068832;28;19919;-64
2023/01/23 12:05:30;;;;;;;;;;;;;;;;;;5063388;28;19958;-62
2023/01/23 12:07:56;;;;;;;;;;;;;;;;;;5065877;28;19909;-64
2023/01/23 12:10:23;;;;;;;;;;;;;;;;;;5050697;28;19932;-63
2023/01/23 12:12:49;;;;;;;;;;;;;;;;;;5068872;28;19940;-62
2023/01/23 12:15:16;;;;;;;;;;;;;;;;;;5062163;28;19974;-62
2023/01/23 12:17:42;;;;;;;;;;;;;;;;;;5069122;28;19915;-63
2023/01/23 12:20:07;;;;;;;;;;;;;;;;;;5050803;28;19925;-63
2023/01/23 12:22:33;;;;;;;;;;;;;;;;;;5068897;28;19915;-62
2023/01/23 12:24:59;;;;;;;;;;;;;;;;;;5069014;28;19916;-64
2023/01/23 12:27:25;;;;;;;;;;;;;;;;;;5068977;28;20750;-61
2023/01/23 12:29:51;;;;;;;;;;;;;;;;;;5069217;28;19912;-62
2023/01/23 12:32:17;;;;;;;;;;;;;;;;;;5069233;28;19935;-62
2023/01/23 12:34:44;;;;;;;;;;;;;;;;;;5063654;28;19916;-63
2023/01/23 12:37:10;;;;;;;;;;;;;;;;;;5068856;28;20494;-63
2023/01/23 12:39:36;;;;;;;;;;;;;;;;;;5069117;28;20390;-65
2023/01/23 12:42:02;;;;;;;;;;;;;;;;;;5088472;28;19931;-64
2023/01/23 12:44:28;;;;;;;;;;;;;;;;;;5088719;28;20121;-62
2023/01/23 12:46:54;;;;;;;;;;;;;;;;;;5088882;28;20002;-64
2023/01/23 12:49:21;;;;;;;;;;;;;;;;;;5088354;28;19938;-65
2023/01/23 12:51:46;;;;;;;;;;;;;;;;;;5088446;28;20869;-66
2023/01/23 12:54:12;;;;;;;;;;;;;;;;;;5081006;28;19926;-64
2023/01/23 12:56:38;;;;;;;;;;;;;;;;;;5088687;28;20415;-63
2023/01/23 12:59:05;;;;;;;;;;;;;;;;;;5089358;28;20493;-63
2023/01/23 13:01:31;;;;;;;;;;;;;;;;;;5093329;28;19920;-63
2023/01/23 13:03:56;;;;;;;;;;;;;;;;;;5092757;28;20364;-62
2023/01/23 13:06:22;;;;;;;;;;;;;;;;;;5092431;28;19912;-64
2023/01/23 13:08:48;;;;;;;;;;;;;;;;;;5092921;28;20006;-61
2023/01/23 13:13:59;;;;;;;;;;;;;;;;;;5092207;28;19915;-62
2023/01/23 13:16:25;;;;;;;;;;;;;;;;;;5073741;28;19908;-62
2023/01/23 13:27:05;;;;;;;;;;;;;;;;;;5073013;28;20280;-65
2023/01/23 13:29:31;;;;;;;;;;;;;;;;;;5072707;28;20424;-65
2023/01/23 13:31:57;;;;;;;;;;;;;;;;;;5072780;28;19916;-65
2023/01/23 13:34:24;;;;;;;;;;;;;;;;;;5072812;28;19917;-65
2023/01/23 13:36:50;;;;;;;;;;;;;;;;;;5072793;28;19916;-65
2023/01/23 13:39:16;;;;;;;;;;;;;;;;;;5072560;28;19964;-65
2023/01/23 13:41:42;;;;;;;;;;;;;;;;;;5072166;28;19959;-65
2023/01/23 13:44:07;;;;;;;;;;;;;;;;;;5053917;28;19948;-65
2023/01/23 13:46:33;;;;;;;;;;;;;;;;;;5071864;28;19912;-65
2023/01/23 13:51:44;;;;;;;;;;;;;;;;;;5072247;28;19965;-65
2023/01/23 13:56:54;;;;;;;;;;;;;;;;;;5071695;28;20678;-65
2023/01/23 13:59:21;;;;;;;;;;;;;;;;;;5053362;28;19916;-64
2023/01/23 14:07:41;;;;;;;;;;;;;;;;;;5071420;28;19957;-65
2023/01/23 14:10:02;;;;;;;;;;;;;;;;;;5070359;28;19908;-65
2023/01/23 14:12:28;;;;;;;;;;;;;;;;;;5070507;28;19927;-63
2023/01/23 14:17:39;;;;;;;;;;;;;;;;;;5071333;28;19962;-65
2023/01/23 14:20:05;;;;;;;;;;;;;;;;;;5071600;28;19924;-63
2023/01/23 14:22:31;;;;;;;;;;;;;;;;;;5070791;28;20343;-63
2023/01/23 14:24:57;;;;;;;;;;;;;;;;;;5071148;28;19912;-64
2023/01/23 14:27:24;;;;;;;;;;;;;;;;;;5071023;28;19913;-63
2023/01/23 14:29:50;;;;;;;;;;;;;;;;;;5070839;28;19947;-62
2023/01/23 14:32:16;;;;;;;;;;;;;;;;;;5070851;28;19950;-61
2023/01/23 14:34:42;;;;;;;;;;;;;;;;;;5069860;28;19916;-63
2023/01/23 14:37:08;;;;;;;;;;;;;;;;;;5052198;28;20553;-64
2023/01/23 14:39:34;;;;;;;;;;;;;;;;;;5060857;28;19931;-63
2023/01/23 14:41:59;;;;;;;;;;;;;;;;;;5062829;28;20049;-63
2023/01/23 14:44:25;;;;;;;;;;;;;;;;;;5066932;28;20361;-63
2023/01/23 14:46:51;;;;;;;;;;;;;;;;;;5065261;28;20006;-63
2023/01/23 14:49:17;;;;;;;;;;;;;;;;;;5066927;28;20388;-65
2023/01/23 14:51:43;;;;;;;;;;;;;;;;;;5064772;28;19917;-60
2023/01/23 14:54:09;;;;;;;;;;;;;;;;;;5066490;28;19924;-64
2023/01/23 14:56:35;;;;;;;;;;;;;;;;;;5066096;28;20016;-62
2023/01/23 14:59:01;;;;;;;;;;;;;;;;;;5068384;28;19917;-62
2023/01/23 15:01:27;;;;;;;;;;;;;;;;;;5068055;28;19916;-64
2023/01/23 15:03:52;;;;;;;;;;;;;;;;;;5061615;28;19920;-64
2023/01/23 15:06:18;;;;;;;;;;;;;;;;;;5066887;28;19936;-63
2023/01/23 15:08:44;;;;;;;;;;;;;;;;;;5063091;28;19921;-64
2023/01/23 15:11:12;;;;;;;;;;;;;;;;;;5067126;28;20278;-65
2023/01/23 15:13:37;;;;;;;;;;;;;;;;;;5065690;28;19913;-64
2023/01/23 15:16:03;;;;;;;;;;;;;;;;;;5066903;28;19922;-64
2023/01/23 15:18:29;;;;;;;;;;;;;;;;;;5062832;28;19916;-63
2023/01/23 15:20:55;;;;;;;;;;;;;;;;;;5068415;28;20019;-65
2023/01/23 15:23:22;;;;;;;;;;;;;;;;;;5063967;28;19920;-64
2023/01/23 15:25:48;;;;;;;;;;;;;;;;;;5068794;28;19974;-64
2023/01/23 15:28:13;;;;;;;;;;;;;;;;;;5062457;28;20321;-63
2023/01/23 15:30:39;;;;;;;;;;;;;;;;;;5068152;28;19920;-60
2023/01/23 15:33:06;;;;;;;;;;;;;;;;;;5062119;28;20305;-61
2023/01/23 15:35:32;;;;;;;;;;;;;;;;;;5067893;28;20023;-64
2023/01/23 15:38:03;;;;;;;;;;;;;;;;;;5065495;28;20003;-61
2023/01/23 15:40:29;;;;;;;;;;;;;;;;;;5063457;28;19928;-63
2023/01/23 15:42:55;;;;;;;;;;;;;;;;;;5065757;28;19916;-65
2023/01/23 15:45:21;;;;;;;;;;;;;;;;;;5067353;28;20262;-63
2023/01/23 15:47:47;;;;;;;;;;;;;;;;;;5066888;28;19940;-64
2023/01/23 15:50:13;;;;;;;;;;;;;;;;;;5063398;28;19917;-64
2023/01/23 15:52:39;;;;;;;;;;;;;;;;;;5066109;28;19951;-64
2023/01/23 15:55:04;;;;;;;;;;;;;;;;;;5054361;28;19917;-64
2023/01/23 15:57:30;;;;;;;;;;;;;;;;;;5066606;28;19992;-63
2023/01/23 15:59:56;;;;;;;;;;;;;;;;;;5060943;28;20005;-65
2023/01/23 16:02:22;;;;;;;;;;;;;;;;;;5064430;28;19917;-63
2023/01/23 16:04:48;;;;;;;;;;;;;;;;;;5063981;28;19924;-63
2023/01/23 16:07:14;;;;;;;;;;;;;;;;;;5052413;28;19961;-64
2023/01/23 16:09:42;;;;;;;;;;;;;;;;;;5062067;28;19952;-65
2023/01/23 16:12:08;;;;;;;;;;;;;;;;;;5064376;28;19967;-63
2023/01/23 16:14:34;;;;;;;;;;;;;;;;;;5041006;28;19940;-61
2023/01/23 16:17:00;;;;;;;;;;;;;;;;;;5049294;28;19926;-64
2023/01/23 16:19:25;;;;;;;;;;;;;;;;;;5059899;28;20380;-63
2023/01/23 16:21:51;;;;;;;;;;;;;;;;;;5064694;28;19928;-62
2023/01/23 16:24:17;;;;;;;;;;;;;;;;;;5064643;28;19966;-64
2023/01/23 16:26:43;;;;;;;;;;;;;;;;;;5063332;28;19947;-63
2023/01/23 16:29:09;;;;;;;;;;;;;;;;;;5067300;28;19920;-62
2023/01/23 16:31:36;;;;;;;;;;;;;;;;;;5066192;28;19909;-65
2023/01/23 16:34:02;;;;;;;;;;;;;;;;;;5067703;28;19944;-62
2023/01/23 16:36:28;;;;;;;;;;;;;;;;;;5066868;28;20373;-61
2023/01/23 16:38:55;;;;;;;;;;;;;;;;;;5064191;28;19923;-61
2023/01/23 16:41:21;;;;;;;;;;;;;;;;;;5074190;28;20377;-62
2023/01/23 16:43:47;;;;;;;;;;;;;;;;;;5089052;28;19920;-61
2023/01/23 16:46:13;;;;;;;;;;;;;;;;;;5089168;28;19953;-61
2023/01/23 16:48:39;;;;;;;;;;;;;;;;;;5088652;28;20352;-62
2023/01/23 16:51:06;;;;;;;;;;;;;;;;;;5067865;28;19952;-62
2023/01/23 16:53:33;;;;;;;;;;;;;;;;;;5064792;28;20011;-62
2023/01/23 16:55:58;;;;;;;;;;;;;;;;;;5064504;28;19999;-61
2023/01/23 16:58:24;;;;;;;;;;;;;;;;;;5087531;28;19912;-61
2023/01/23 17:00:50;;;;;;;;;;;;;;;;;;5077853;28;19924;-61
2023/01/23 17:03:16;;;;;;;;;;;;;;;;;;5061486;28;19943;-61
2023/01/23 17:05:42;;;;;;;;;;;;;;;;;;5072286;28;19908;-61
2023/01/23 17:08:08;;;;;;;;;;;;;;;;;;5072256;28;19916;-61
2023/01/23 17:10:34;;;;;;;;;;;;;;;;;;5086132;28;20722;-62